createdAt,value
2022-10-03T00:01:26.458Z,16.13
2022-10-03T00:04:11.679Z,16.04
2022-10-03T00:06:52.057Z,16.00
2022-10-03T00:09:37.377Z,15.99
2022-10-03T00:12:15.759Z,15.94
2022-10-03T00:14:54.986Z,15.87
2022-10-03T00:17:28.971Z,15.80
2022-10-03T00:20:07.465Z,15.73
2022-10-03T00:22:43.416Z,15.70
2022-10-03T00:25:29.923Z,15.69
2022-10-03T00:28:13.935Z,15.68
2022-10-03T00:30:55.150Z,15.65
2022-10-03T00:33:33.932Z,15.59
2022-10-03T00:36:15.865Z,15.59
2022-10-03T00:39:03.832Z,15.58
2022-10-03T00:41:58.043Z,15.51
2022-10-03T00:45:02.468Z,15.44
2022-10-03T00:48:07.858Z,15.32
2022-10-03T00:51:06.751Z,15.20
2022-10-03T00:53:49.794Z,15.18
2022-10-03T00:56:37.153Z,15.13
2022-10-03T00:59:29.195Z,15.04
2022-10-03T01:01:58.831Z,14.98
2022-10-03T01:04:47.208Z,14.89
2022-10-03T01:07:33.318Z,14.94
2022-10-03T01:10:14.260Z,14.91
2022-10-03T01:12:59.987Z,14.82
2022-10-03T01:15:41.841Z,14.76
2022-10-03T01:18:23.202Z,14.74
2022-10-03T01:21:02.327Z,14.71
2022-10-03T01:24:01.153Z,14.70
2022-10-03T01:26:50.721Z,14.64
2022-10-03T01:29:44.550Z,14.59
2022-10-03T01:32:18.722Z,14.48
2022-10-03T01:34:54.357Z,14.44
2022-10-03T01:37:30.518Z,14.43
2022-10-03T01:40:09.868Z,14.42
2022-10-03T01:42:46.133Z,14.49
2022-10-03T01:45:27.711Z,14.61
2022-10-03T01:48:01.987Z,14.57
2022-10-03T01:50:36.620Z,14.85
2022-10-03T01:53:13.578Z,14.99
2022-10-03T01:55:51.050Z,15.05
2022-10-03T01:58:28.912Z,15.15
2022-10-03T02:01:08.643Z,15.24
2022-10-03T02:03:47.041Z,15.06
2022-10-03T02:06:25.607Z,15.42
2022-10-03T02:09:03.414Z,15.49
2022-10-03T02:11:39.413Z,15.54
2022-10-03T02:14:21.996Z,15.59
2022-10-03T02:17:00.719Z,15.70
2022-10-03T02:19:36.456Z,15.78
2022-10-03T02:22:15.340Z,15.84
2022-10-03T02:24:52.795Z,15.87
2022-10-03T02:28:04.147Z,15.87
2022-10-03T02:30:43.132Z,15.76
2022-10-03T02:33:52.013Z,15.87
2022-10-03T02:36:52.612Z,15.84
2022-10-03T02:40:00.564Z,15.85
2022-10-03T02:43:07.973Z,15.87
2022-10-03T02:46:16.365Z,15.87
2022-10-03T02:49:19.419Z,15.90
2022-10-03T02:52:11.013Z,15.92
2022-10-03T02:55:10.512Z,15.96
2022-10-03T02:58:12.320Z,15.98
2022-10-03T03:01:06.891Z,15.98
2022-10-03T03:04:12.074Z,15.92
2022-10-03T03:06:58.677Z,15.87
2022-10-03T03:10:07.781Z,15.81
2022-10-03T03:12:56.865Z,15.80
2022-10-03T03:15:56.147Z,15.80
2022-10-03T03:18:34.556Z,15.80
2022-10-03T03:21:25.132Z,15.81
2022-10-03T03:24:13.863Z,15.75
2022-10-03T03:26:59.340Z,15.73
2022-10-03T03:29:39.338Z,15.73
2022-10-03T03:32:19.110Z,15.72
2022-10-03T03:34:59.449Z,15.70
2022-10-03T03:37:35.980Z,15.67
2022-10-03T03:40:29.719Z,15.70
2022-10-03T03:43:19.031Z,15.68
2022-10-03T03:45:57.100Z,15.66
2022-10-03T03:48:44.132Z,15.69
2022-10-03T03:51:23.651Z,15.66
2022-10-03T03:54:12.436Z,15.62
2022-10-03T03:57:28.423Z,15.54
2022-10-03T04:00:13.271Z,15.46
2022-10-03T04:02:54.131Z,15.24
2022-10-03T04:05:35.095Z,15.34
2022-10-03T04:08:24.180Z,15.21
2022-10-03T04:11:03.623Z,15.12
2022-10-03T04:13:55.029Z,15.00
2022-10-03T04:17:01.046Z,14.93
2022-10-03T04:19:40.206Z,14.88
2022-10-03T04:22:25.975Z,14.82
2022-10-03T04:25:20.979Z,14.77
2022-10-03T04:28:13.952Z,14.76
2022-10-03T04:30:53.338Z,14.74
2022-10-03T04:33:40.227Z,14.66
2022-10-03T04:36:35.645Z,14.58
2022-10-03T04:39:11.988Z,14.59
2022-10-03T04:41:47.410Z,14.59
2022-10-03T04:44:35.051Z,14.59
2022-10-03T04:47:09.723Z,14.46
2022-10-03T04:49:46.977Z,14.59
2022-10-03T04:52:23.217Z,14.51
2022-10-03T04:55:05.223Z,14.51
2022-10-03T04:57:43.758Z,14.42
2022-10-03T05:00:24.754Z,14.40
2022-10-03T05:03:03.127Z,14.38
2022-10-03T05:05:52.821Z,14.31
2022-10-03T05:08:35.610Z,14.24
2022-10-03T05:11:19.024Z,14.17
2022-10-03T05:14:05.819Z,14.13
2022-10-03T05:16:42.537Z,14.08
2022-10-03T05:19:49.370Z,14.04
2022-10-03T05:22:32.943Z,13.96
2022-10-03T05:25:13.093Z,13.88
2022-10-03T05:27:51.984Z,13.88
2022-10-03T05:30:27.723Z,13.83
2022-10-03T05:33:08.386Z,13.79
2022-10-03T05:35:51.330Z,13.73
2022-10-03T05:38:37.343Z,13.72
2022-10-03T05:41:12.827Z,13.70
2022-10-03T05:43:58.372Z,13.70
2022-10-03T05:46:42.231Z,13.68
2022-10-03T05:49:29.091Z,13.67
2022-10-03T05:52:25.468Z,13.68
2022-10-03T05:55:13.498Z,13.68
2022-10-03T05:58:12.338Z,13.66
2022-10-03T06:01:04.862Z,13.65
2022-10-03T06:04:08.636Z,13.61
2022-10-03T06:06:52.359Z,13.60
2022-10-03T06:09:41.473Z,13.62
2022-10-03T06:12:15.942Z,13.64
2022-10-03T06:15:15.734Z,13.65
2022-10-03T06:17:59.500Z,13.63
2022-10-03T06:20:55.553Z,13.61
2022-10-03T06:23:53.169Z,13.63
2022-10-03T06:26:41.244Z,13.66
2022-10-03T06:29:37.067Z,13.77
2022-10-03T06:32:41.125Z,13.86
2022-10-03T06:35:42.467Z,13.97
2022-10-03T06:38:49.115Z,14.04
2022-10-03T06:41:55.211Z,14.11
2022-10-03T06:44:47.339Z,14.22
2022-10-03T06:47:31.614Z,14.29
2022-10-03T06:50:27.013Z,14.36
2022-10-03T06:53:16.289Z,14.44
2022-10-03T06:56:19.380Z,14.52
2022-10-03T06:59:12.682Z,14.59
2022-10-03T07:02:21.025Z,14.73
2022-10-03T07:05:15.542Z,14.84
2022-10-03T07:08:19.694Z,14.95
2022-10-03T07:11:18.550Z,15.03
2022-10-03T07:14:16.162Z,15.10
2022-10-03T07:17:11.009Z,15.20
2022-10-03T07:19:55.779Z,15.27
2022-10-03T07:22:46.058Z,15.36
2022-10-03T07:25:46.054Z,15.47
2022-10-03T07:28:52.964Z,15.56
2022-10-03T07:31:34.768Z,15.67
2022-10-03T07:34:33.910Z,15.78
2022-10-03T07:37:36.349Z,15.89
2022-10-03T07:40:36.761Z,15.98
2022-10-03T07:43:37.205Z,16.06
2022-10-03T07:46:38.025Z,16.13
2022-10-03T07:49:19.666Z,16.19
2022-10-03T07:52:09.860Z,16.30
2022-10-03T07:55:00.076Z,16.34
2022-10-03T07:57:41.355Z,16.42
2022-10-03T08:00:17.117Z,16.37
2022-10-03T08:03:40.560Z,16.51
2022-10-03T08:06:38.169Z,16.57
2022-10-03T08:09:46.207Z,16.65
2022-10-03T08:12:45.330Z,16.76
2022-10-03T08:15:26.510Z,16.84
2022-10-03T08:18:22.662Z,16.95
2022-10-03T08:20:55.417Z,17.03
2022-10-03T08:24:08.574Z,17.14
2022-10-03T08:26:56.345Z,17.22
2022-10-03T08:29:57.642Z,17.29
2022-10-03T08:32:48.893Z,17.37
2022-10-03T08:35:41.651Z,17.46
2022-10-03T08:38:42.366Z,17.53
2022-10-03T08:42:08.031Z,17.59
2022-10-03T08:45:02.012Z,17.63
2022-10-03T08:47:58.426Z,17.70
2022-10-03T08:50:57.557Z,17.76
2022-10-03T08:54:07.066Z,17.81
2022-10-03T08:56:52.813Z,17.86
2022-10-03T08:59:48.501Z,17.80
2022-10-03T09:03:20.210Z,17.97
2022-10-03T09:06:14.301Z,18.00
2022-10-03T09:08:58.305Z,18.08
2022-10-03T09:12:18.165Z,18.14
2022-10-03T09:15:13.627Z,18.21
2022-10-03T09:18:26.810Z,18.31
2022-10-03T09:21:37.037Z,18.39
2022-10-03T09:24:23.032Z,18.47
2022-10-03T09:27:31.642Z,18.54
2022-10-03T09:30:25.044Z,18.64
2022-10-03T09:33:30.673Z,18.74
2022-10-03T09:36:25.095Z,18.83
2022-10-03T09:39:06.893Z,18.92
2022-10-03T09:42:12.104Z,18.94
2022-10-03T09:45:08.691Z,19.00
2022-10-03T09:48:05.931Z,19.13
2022-10-03T09:51:16.395Z,19.18
2022-10-03T09:54:23.862Z,19.24
2022-10-03T09:57:10.236Z,19.31
2022-10-03T09:59:55.510Z,19.38
2022-10-03T10:02:46.710Z,19.45
2022-10-03T10:05:35.091Z,19.55
2022-10-03T10:08:45.265Z,19.66
2022-10-03T10:11:26.391Z,19.73
2022-10-03T10:14:31.038Z,19.84
2022-10-03T10:17:33.858Z,19.93
2022-10-03T10:20:21.662Z,20.04
2022-10-03T10:23:15.589Z,20.20
2022-10-03T10:26:11.637Z,20.31
2022-10-03T10:29:17.280Z,20.39
2022-10-03T10:32:30.806Z,20.45
2022-10-03T10:35:29.264Z,20.50
2022-10-03T10:38:26.171Z,20.54
2022-10-03T10:41:30.333Z,20.58
2022-10-03T10:44:46.618Z,20.65
2022-10-03T10:47:43.935Z,20.69
2022-10-03T10:50:50.777Z,20.75
2022-10-03T10:54:09.834Z,20.81
2022-10-03T10:57:03.289Z,20.90
2022-10-03T11:00:08.002Z,21.03
2022-10-03T11:03:09.479Z,21.11
2022-10-03T11:06:11.625Z,21.17
2022-10-03T11:09:10.152Z,21.28
2022-10-03T11:12:14.752Z,21.34
2022-10-03T11:15:35.823Z,21.40
2022-10-03T11:18:42.768Z,21.45
2022-10-03T11:21:41.947Z,21.49
2022-10-03T11:24:41.258Z,21.51
2022-10-03T11:27:45.585Z,21.52
2022-10-03T11:30:56.745Z,21.55
2022-10-03T11:33:57.290Z,21.49
2022-10-03T11:36:58.468Z,21.72
2022-10-03T11:39:42.089Z,21.85
2022-10-03T11:42:25.481Z,22.00
2022-10-03T11:44:59.374Z,22.16
2022-10-03T11:47:56.255Z,22.30
2022-10-03T11:50:32.064Z,22.47
2022-10-03T11:53:16.093Z,22.62
2022-10-03T11:55:52.758Z,22.77
2022-10-03T11:58:46.261Z,22.90
2022-10-03T12:01:26.084Z,23.02
2022-10-03T12:04:04.638Z,23.14
2022-10-03T12:07:17.614Z,23.27
2022-10-03T12:10:04.101Z,23.41
2022-10-03T12:12:42.389Z,23.51
2022-10-03T12:15:36.661Z,23.53
2022-10-03T12:18:11.067Z,23.68
2022-10-03T12:21:01.199Z,23.87
2022-10-03T12:23:45.385Z,23.94
2022-10-03T12:26:19.276Z,23.60
2022-10-03T12:28:55.431Z,24.08
2022-10-03T12:31:30.420Z,24.13
2022-10-03T12:34:09.448Z,24.23
2022-10-03T12:36:49.361Z,24.36
2022-10-03T12:39:31.611Z,24.47
2022-10-03T12:42:20.889Z,24.52
2022-10-03T12:44:57.400Z,24.61
2022-10-03T12:47:54.163Z,24.66
2022-10-03T12:50:39.087Z,24.74
2022-10-03T12:53:25.338Z,24.79
2022-10-03T12:56:18.937Z,24.86
2022-10-03T12:58:59.293Z,24.91
2022-10-03T13:01:49.414Z,24.90
2022-10-03T13:04:31.106Z,24.87
2022-10-03T13:07:16.352Z,24.86
2022-10-03T13:10:12.634Z,24.90
2022-10-03T13:12:47.313Z,24.93
2022-10-03T13:15:52.747Z,24.95
2022-10-03T13:18:43.992Z,24.96
2022-10-03T13:21:44.381Z,25.00
2022-10-03T13:24:13.540Z,25.04
2022-10-03T13:26:53.668Z,25.07
2022-10-03T13:29:30.147Z,25.09
2022-10-03T13:32:12.217Z,25.09
2022-10-03T13:34:59.028Z,25.11
2022-10-03T13:37:34.080Z,25.14
2022-10-03T13:40:09.264Z,25.17
2022-10-03T13:42:45.333Z,24.96
2022-10-03T13:45:19.326Z,25.20
2022-10-03T13:47:53.980Z,25.20
2022-10-03T13:50:31.304Z,25.25
2022-10-03T13:53:06.040Z,25.25
2022-10-03T13:55:47.894Z,25.28
2022-10-03T13:58:32.965Z,25.31
2022-10-03T14:01:15.426Z,25.18
2022-10-03T14:03:56.125Z,25.33
2022-10-03T14:06:37.791Z,25.32
2022-10-03T14:09:38.697Z,25.27
2022-10-03T14:12:28.229Z,25.23
2022-10-03T14:15:19.331Z,24.92
2022-10-03T14:17:54.656Z,25.20
2022-10-03T14:20:30.447Z,25.19
2022-10-03T14:23:14.252Z,25.16
2022-10-03T14:25:48.872Z,25.13
2022-10-03T14:28:26.733Z,25.11
2022-10-03T14:31:07.358Z,25.03
2022-10-03T14:33:44.898Z,25.07
2022-10-03T14:36:31.413Z,25.04
2022-10-03T14:39:22.124Z,24.99
2022-10-03T14:42:24.031Z,24.96
2022-10-03T14:44:57.244Z,24.87
2022-10-03T14:47:27.234Z,24.87
2022-10-03T14:50:00.130Z,24.87
2022-10-03T14:52:38.107Z,24.84
2022-10-03T14:55:15.752Z,24.79
2022-10-03T14:58:09.442Z,24.73
2022-10-03T15:00:43.914Z,24.67
2022-10-03T15:03:24.957Z,24.65
2022-10-03T15:06:01.844Z,24.63
2022-10-03T15:08:37.860Z,24.62
2022-10-03T15:11:10.267Z,24.41
2022-10-03T15:13:44.568Z,24.54
2022-10-03T15:16:18.348Z,24.47
2022-10-03T15:18:54.004Z,24.36
2022-10-03T15:21:23.214Z,24.41
2022-10-03T15:23:57.266Z,24.39
2022-10-03T15:26:31.486Z,24.35
2022-10-03T15:29:03.842Z,24.25
2022-10-03T15:31:36.533Z,24.19
2022-10-03T15:34:08.602Z,24.03
2022-10-03T15:36:40.377Z,24.09
2022-10-03T15:39:20.027Z,24.00
2022-10-03T15:42:04.631Z,23.93
2022-10-03T15:44:39.544Z,23.85
2022-10-03T15:47:14.126Z,23.85
2022-10-03T15:49:50.305Z,23.85
2022-10-03T15:52:23.169Z,23.82
2022-10-03T15:55:03.137Z,23.80
2022-10-03T15:57:46.609Z,23.79
2022-10-03T16:00:27.866Z,23.79
2022-10-03T16:03:07.478Z,23.73
2022-10-03T16:05:37.423Z,23.66
2022-10-03T16:08:10.855Z,23.55
2022-10-03T16:10:42.452Z,23.53
2022-10-03T16:13:28.535Z,23.46
2022-10-03T16:16:11.450Z,23.38
2022-10-03T16:18:54.965Z,23.30
2022-10-03T16:21:47.452Z,23.06
2022-10-03T16:24:29.882Z,23.19
2022-10-03T16:27:07.308Z,23.11
2022-10-03T16:29:39.851Z,23.06
2022-10-03T16:32:11.152Z,23.00
2022-10-03T16:34:45.754Z,22.94
2022-10-03T16:37:20.962Z,22.85
2022-10-03T16:39:55.854Z,22.74
2022-10-03T16:42:29.046Z,22.66
2022-10-03T16:45:02.155Z,22.58
2022-10-03T16:47:35.546Z,22.54
2022-10-03T16:50:23.119Z,22.47
2022-10-03T16:52:54.315Z,22.35
2022-10-03T16:55:28.484Z,22.07
2022-10-03T16:57:59.348Z,22.11
2022-10-03T17:00:36.165Z,22.03
2022-10-03T17:03:14.108Z,21.90
2022-10-03T17:05:47.322Z,21.83
2022-10-03T17:08:40.639Z,21.79
2022-10-03T17:11:09.549Z,21.68
2022-10-03T17:13:44.032Z,21.55
2022-10-03T17:16:21.877Z,21.45
2022-10-03T17:19:17.158Z,21.35
2022-10-03T17:21:54.008Z,21.23
2022-10-03T17:24:32.720Z,21.11
2022-10-03T17:27:07.426Z,21.02
2022-10-03T17:29:42.177Z,20.87
2022-10-03T17:32:21.513Z,20.78
2022-10-03T17:34:58.680Z,20.73
2022-10-03T17:38:19.637Z,20.68
2022-10-03T17:41:04.487Z,20.33
2022-10-03T17:43:41.266Z,20.51
2022-10-03T17:46:19.069Z,20.45
2022-10-03T17:48:56.308Z,20.37
2022-10-03T17:51:34.489Z,20.25
2022-10-03T17:54:07.318Z,20.17
2022-10-03T17:56:36.590Z,20.06
2022-10-03T17:59:13.975Z,19.96
2022-10-03T18:01:46.046Z,19.77
2022-10-03T18:04:20.321Z,19.68
2022-10-03T18:06:50.836Z,19.45
2022-10-03T18:09:29.783Z,19.41
2022-10-03T18:12:12.187Z,19.25
2022-10-03T18:14:54.041Z,19.15
2022-10-03T18:17:30.763Z,19.03
2022-10-03T18:20:21.270Z,18.90
2022-10-03T18:22:56.767Z,18.74
2022-10-03T18:26:15.015Z,18.63
2022-10-03T18:28:45.885Z,18.51
2022-10-03T18:31:18.960Z,18.48
2022-10-03T18:33:51.924Z,18.42
2022-10-03T18:36:25.024Z,18.33
2022-10-03T18:38:58.623Z,18.11
2022-10-03T18:41:27.488Z,18.18
2022-10-03T18:43:59.866Z,18.14
2022-10-03T18:46:33.485Z,17.93
2022-10-03T18:49:31.830Z,18.07
2022-10-03T18:52:04.480Z,17.91
2022-10-03T18:54:43.226Z,17.81
2022-10-03T18:57:20.193Z,18.30
2022-10-03T18:59:56.137Z,17.94
2022-10-03T19:02:31.991Z,17.71
2022-10-03T19:05:11.135Z,17.70
2022-10-03T19:07:50.240Z,17.62
2022-10-03T19:10:40.788Z,17.53
2022-10-03T19:13:19.662Z,17.44
2022-10-03T19:16:05.290Z,17.36
2022-10-03T19:18:42.954Z,17.27
2022-10-03T19:21:18.867Z,17.20
2022-10-03T19:23:54.341Z,17.13
2022-10-03T19:26:27.478Z,17.07
2022-10-03T19:28:59.864Z,17.07
2022-10-03T19:31:32.999Z,17.08
2022-10-03T19:34:08.951Z,17.12
2022-10-03T19:36:41.102Z,17.19
2022-10-03T19:39:14.874Z,17.27
2022-10-03T19:41:52.910Z,17.29
2022-10-03T19:44:24.779Z,17.19
2022-10-03T19:47:14.130Z,17.25
2022-10-03T19:49:57.667Z,17.17
2022-10-03T19:52:29.711Z,17.17
2022-10-03T19:55:13.107Z,17.11
2022-10-03T19:57:44.748Z,17.14
2022-10-03T20:00:26.953Z,17.13
2022-10-03T20:02:58.831Z,17.04
2022-10-03T20:05:34.099Z,17.02
2022-10-03T20:08:08.968Z,16.92
2022-10-03T20:10:52.241Z,16.87
2022-10-03T20:13:20.838Z,16.78
2022-10-03T20:15:52.426Z,16.71
2022-10-03T20:18:26.370Z,16.62
2022-10-03T20:20:57.290Z,16.50
2022-10-03T20:23:28.478Z,16.41
2022-10-03T20:26:03.204Z,16.34
2022-10-03T20:28:49.826Z,16.28
2022-10-03T20:31:23.007Z,16.21
2022-10-03T20:33:53.383Z,16.15
2022-10-03T20:36:25.092Z,15.91
2022-10-03T20:39:05.602Z,16.15
2022-10-03T20:41:48.862Z,16.15
2022-10-03T20:44:27.919Z,16.12
2022-10-03T20:47:03.587Z,16.11
2022-10-03T20:49:33.758Z,16.15
2022-10-03T20:52:04.985Z,16.15
2022-10-03T20:54:37.832Z,15.94
2022-10-03T20:57:17.337Z,16.15
2022-10-03T20:59:50.703Z,16.10
2022-10-03T21:02:29.458Z,16.08
2022-10-03T21:05:02.350Z,16.04
2022-10-03T21:07:38.935Z,15.96
2022-10-03T21:10:19.621Z,15.93
2022-10-03T21:12:53.562Z,15.92
2022-10-03T21:15:30.831Z,15.87
2022-10-03T21:17:59.903Z,15.86
2022-10-03T21:20:35.907Z,15.81
2022-10-03T21:23:08.096Z,15.70
2022-10-03T21:25:39.364Z,15.65
2022-10-03T21:28:24.657Z,15.63
2022-10-03T21:31:16.096Z,15.58
2022-10-03T21:33:52.878Z,15.57
2022-10-03T21:36:28.355Z,15.56
2022-10-03T21:39:12.589Z,15.51
2022-10-03T21:41:52.443Z,15.42
2022-10-03T21:44:39.130Z,15.44
2022-10-03T21:47:17.683Z,15.43
2022-10-03T21:49:55.550Z,15.45
2022-10-03T21:52:56.520Z,15.49
2022-10-03T21:55:53.148Z,15.45
2022-10-03T21:58:34.279Z,15.47
2022-10-03T22:01:14.046Z,15.43
2022-10-03T22:03:51.672Z,15.46
2022-10-03T22:06:24.778Z,15.47
2022-10-03T22:08:55.561Z,15.44
2022-10-03T22:11:36.095Z,15.33
2022-10-03T22:14:16.115Z,15.46
2022-10-03T22:16:56.832Z,15.41
2022-10-03T22:19:34.733Z,15.04
2022-10-03T22:22:20.538Z,15.36
2022-10-03T22:25:00.317Z,15.31
2022-10-03T22:27:35.045Z,15.23
2022-10-03T22:30:06.429Z,15.20
2022-10-03T22:32:41.898Z,15.21
2022-10-03T22:35:25.943Z,15.18
2022-10-03T22:37:55.745Z,15.20
2022-10-03T22:40:25.322Z,15.19
2022-10-03T22:42:58.398Z,15.11
2022-10-03T22:45:29.522Z,15.04
2022-10-03T22:48:02.204Z,15.03
2022-10-03T22:50:33.898Z,14.72
2022-10-03T22:53:04.839Z,14.91
2022-10-03T22:55:34.544Z,14.84
2022-10-03T22:58:06.155Z,14.84
2022-10-03T23:00:35.941Z,14.83
2022-10-03T23:03:11.186Z,14.90
2022-10-03T23:06:11.695Z,14.87
2022-10-03T23:08:54.797Z,14.78
2022-10-03T23:11:26.347Z,14.72
2022-10-03T23:13:57.939Z,14.68
2022-10-03T23:16:48.668Z,14.63
2022-10-03T23:19:27.808Z,14.61
2022-10-03T23:21:59.496Z,14.32
2022-10-03T23:24:33.294Z,14.62
2022-10-03T23:27:40.234Z,14.62
2022-10-03T23:30:55.211Z,14.59
2022-10-03T23:33:50.383Z,14.60
2022-10-03T23:36:24.024Z,14.48
2022-10-03T23:38:58.905Z,14.71
2022-10-03T23:41:44.480Z,14.77
2022-10-03T23:44:31.411Z,14.84
2022-10-03T23:47:02.713Z,14.86
2022-10-03T23:49:31.111Z,14.94
2022-10-03T23:52:00.971Z,15.01
2022-10-03T23:54:29.755Z,15.05
2022-10-03T23:57:07.205Z,15.12
2022-10-03T23:59:38.538Z,15.15
